Saint Henry, Ohio
Current Conditions -  °F | °C
As of 2:15 PM on Monday 20 Oct 2014 (Local Time) from KVES Reporting Station
Thunderstorm Thunderstorm  
Wind Chill: 54°   Ceiling: 4100
Heat Index: 54°   Visibility: 5mi
Dew Point: 52°   Wind: 7mph
Humidity: 94%   Direction: 330°NNW
Pressure: 29.85"   Gusts: NA
Location:  40.42°N, 84.64°W
Report Text: KVES 201815Z AUTO 33006KT 5SM +VCTSRA SCT026 BKN041 OVC055 12/11 A2985 RMK AO2 LTG DSNT SW THRU N P0003
Loading
Personal Weather Stations






























Interactive Weather Map
Tropical Storm Tracking
New forecast layout! Learn more

10-Day Weather Forecast

Advertisements
Track Severe Weather on mobile